Main page
METAR-TAF:

METAR-TAF

Airports :

Cardiff Airport

Cardiff, Wales

latitude: 51-24N, longitude: 003-21W, elevation: 67 m

Current weather observation

The report was made 23 minutes ago, at 18:20 UTC
Wind 12 kt from the Northeast
Temperature 7°C
Humidity 76%
Pressure 1017 hPa
Visibility 10 km or more
Few clouds at a height of 3900 ft

METAR: EGFF 191820Z AUTO 05012KT 9999 FEW039 07/03 Q1017

Time: 18:43 (18:43 UTC)

Forecast

The report was made 1 hour and 45 minutes ago, at 16:58 UTC
Forecast valid from 19 at 18 UTC to 20 at 18 UTC
Wind 14 kt from the East/Northeast
Visibility 10 km or more
Scattered clouds at a height of 2500 ft
Temporary
from 20 at 09 UTC to 20 at 18 UTC
Wind 17 kt from the East/Northeast with gusts up to 27 kt
Probability 30% :
Temporary
from 20 at 12 UTC to 20 at 18 UTC
Visibility: 7000 m
rain showers

TAF: EGFF 191658Z 1918/2018 07014KT 9999 SCT025 TEMPO 2009/2018 06017G27KT PROB30 TEMPO 2012/2018 7000 SHRA

Weather observations and forecasts of more than 4000 airports (METAR and TAF reports).

The available stations are represented by yellow and red dots on the map.

Hover mouse over dot to see the name of the station.

Then click to see weather observations and forecasts.

To change the map : click on the green buttons with a black cross to zoom in, on the green button with a dash to zoom out, or on the green arrows for adjacent maps.


METAR-TAF: